Lady Debora — V2QG7 — position and weather

sailwx.info

Track history (hours):
 
Tides and Currents Weather Stations Pressure Air Temp Water Temp Dewpoint Dewpoint Depression Visibility Wind Speed Wind Dir Waves Ship Positions

Lady Debora

Last reported at 2016-Jun-26 05:33 UTC. Time now 2016-Jun-26 06:32 UTC.
Position N 45°14' E 012°23'.

Length 107 m; draft 4 m.

Type: Cargo ship. MMSI: 304010760.

Date/timePositionNaut miles runAvg speedWind from/ knotsBaromVisibWave heightAir tempDewpointWater temp
2016-Jun-26 05:33N 45°14' E 012°23'0 0.0
2016-Jun-26 04:33N 45°14' E 012°23'0 0.0
2016-Jun-26 03:33N 45°14' E 012°23'0 0.0
2016-Jun-26 02:33N 45°14' E 012°23'0 0.0
2016-Jun-26 01:33N 45°14' E 012°23'0 0.0
2016-Jun-26 00:33N 45°14' E 012°23'0 0.0
2016-Jun-25 23:30N 45°14' E 012°23'0 0.0
2016-Jun-25 22:33N 45°14' E 012°23'0 0.0
2016-Jun-25 21:33N 45°14' E 012°23'0 0.0
2016-Jun-25 20:33N 45°14' E 012°23'0 0.0
2016-Jun-25 19:33N 45°14' E 012°23'0 0.1
2016-Jun-25 18:33N 45°14' E 012°23'0 0.1
2016-Jun-25 17:33N 45°14' E 012°23'0 0.0
2016-Jun-25 16:33N 45°14' E 012°23'0 0.0
2016-Jun-25 15:33N 45°14' E 012°23'0 0.0
2016-Jun-25 14:33N 45°14' E 012°23'0 0.0
2016-Jun-25 13:33N 45°14' E 012°23'0 0.0
2016-Jun-25 12:33N 45°14' E 012°23'0 0.0
2016-Jun-25 11:33N 45°14' E 012°23'2 1.9
2016-Jun-25 10:34N 45°14' E 012°26'7 7.4
2016-Jun-25 09:34N 45°20' E 012°20'7 6.7
2016-Jun-25 08:33N 45°26' E 012°16'1 1.1
2016-Jun-25 07:31N 45°27' E 012°15'0 0.0
2016-Jun-25 06:25N 45°27' E 012°15'0 0.0
2016-Jun-25 05:28N 45°27' E 012°15'0 0.0
2016-Jun-25 04:31N 45°27' E 012°15'0 0.0
2016-Jun-25 03:31N 45°27' E 012°15'0 0.0
2016-Jun-25 02:31N 45°27' E 012°15'0 0.0
2016-Jun-25 01:31N 45°27' E 012°15'0 0.0
2016-Jun-25 00:28N 45°27' E 012°15'0 0.0
2016-Jun-24 23:28N 45°27' E 012°15'0 0.0
2016-Jun-24 22:31N 45°27' E 012°15'0 0.0
2016-Jun-24 21:31N 45°27' E 012°15'0 0.0
2016-Jun-24 20:31N 45°27' E 012°15'0 0.0
2016-Jun-24 19:31N 45°27' E 012°15'0 0.0
2016-Jun-24 18:31N 45°27' E 012°15'0 0.0
2016-Jun-24 17:31N 45°27' E 012°15'0 0.0
2016-Jun-24 16:31N 45°27' E 012°15'0 0.0
2016-Jun-24 15:33N 45°27' E 012°15'0 0.0
2016-Jun-24 14:31N 45°27' E 012°15'0 0.0
2016-Jun-24 13:31N 45°27' E 012°15'0 0.0
2016-Jun-24 12:31N 45°27' E 012°15'0 0.0
2016-Jun-24 11:32N 45°27' E 012°15'0 0.0
2016-Jun-24 10:31N 45°27' E 012°15'0 0.0
2016-Jun-24 09:31N 45°27' E 012°15'0 0.0
2016-Jun-24 08:31N 45°27' E 012°15'0 0.0
2016-Jun-24 07:28N 45°27' E 012°15'0 0.0
2016-Jun-24 04:34N 45°27' E 012°15'0 0.1
2016-Jun-24 03:31N 45°27' E 012°15'0 0.0
2016-Jun-24 02:25N 45°27' E 012°15'0 0.0
2016-Jun-24 01:31N 45°27' E 012°15'0 0.0
2016-Jun-24 00:31N 45°27' E 012°15'0 0.0
2016-Jun-23 23:31N 45°27' E 012°15'0 0.0
2016-Jun-23 22:31N 45°27' E 012°15'0 0.0
2016-Jun-23 21:31N 45°27' E 012°15'0 0.0
2016-Jun-23 20:28N 45°27' E 012°15'0 0.0
2016-Jun-23 19:31N 45°27' E 012°15'0 0.0
2016-Jun-23 18:31N 45°27' E 012°15'0 0.0
2016-Jun-23 17:31N 45°27' E 012°15'0 0.0
2016-Jun-23 16:31N 45°27' E 012°15'0 0.0
2016-Jun-23 15:31N 45°27' E 012°15'0 0.0
2016-Jun-23 14:31N 45°27' E 012°15'0 0.0
2016-Jun-23 13:31N 45°27' E 012°15'0 0.0
2016-Jun-23 12:31N 45°27' E 012°15'0 0.0
2016-Jun-23 11:31N 45°27' E 012°15'0 0.0
2016-Jun-23 10:31N 45°27' E 012°15'0 0.0
2016-Jun-23 09:31N 45°27' E 012°15'0 0.0
2016-Jun-23 08:32N 45°27' E 012°15'0 0.0
2016-Jun-23 07:31N 45°27' E 012°15'0 0.1
2016-Jun-23 05:33N 45°27' E 012°16'6 6.3
2016-Jun-23 04:34N 45°21' E 012°16'6 5.8
2016-Jun-23 03:33N 45°22' E 012°24'1 0.8
2016-Jun-23 02:33N 45°23' E 012°24'0 0.0
2016-Jun-23 01:33N 45°23' E 012°24'0 0.0
2016-Jun-23 00:33N 45°23' E 012°24'0 0.0
2016-Jun-22 23:33N 45°23' E 012°24'0 0.0
2016-Jun-22 22:33N 45°23' E 012°24'0 0.0
2016-Jun-22 21:33N 45°23' E 012°24'0 0.0
2016-Jun-22 20:33N 45°23' E 012°24'0 0.0
2016-Jun-22 19:33N 45°23' E 012°24'0 0.0
2016-Jun-22 18:33N 45°23' E 012°24'0 0.0
2016-Jun-22 17:33N 45°23' E 012°24'0 0.0
2016-Jun-22 16:33N 45°23' E 012°24'0 0.0
2016-Jun-22 15:33N 45°23' E 012°24'0 0.0
2016-Jun-22 14:33N 45°23' E 012°24'0 0.0
2016-Jun-22 13:33N 45°23' E 012°24'0 0.0
2016-Jun-22 12:33N 45°23' E 012°24'0 0.0
2016-Jun-22 11:33N 45°23' E 012°24'0 0.0
2016-Jun-22 10:33N 45°23' E 012°24'0 0.0
2016-Jun-22 09:33N 45°23' E 012°24'0 0.0
2016-Jun-22 08:33N 45°23' E 012°24'0 0.0
2016-Jun-22 07:33N 45°23' E 012°24'0 0.0
2016-Jun-22 06:33N 45°23' E 012°24'0 0.0
2016-Jun-22 05:33N 45°23' E 012°24'0 0.1
2016-Jun-22 04:33N 45°23' E 012°24'0 0.0
2016-Jun-22 03:33N 45°23' E 012°24'0 0.0
2016-Jun-22 02:33N 45°23' E 012°24'0 0.0
2016-Jun-22 01:33N 45°23' E 012°24'0 0.0
2016-Jun-22 00:33N 45°23' E 012°24'0 0.0
2016-Jun-21 23:33N 45°23' E 012°24'0 0.0
2016-Jun-21 22:33N 45°23' E 012°24'0 0.0
2016-Jun-21 21:33N 45°23' E 012°24'0 0.0
2016-Jun-21 20:33N 45°23' E 012°24'0 0.0
2016-Jun-21 19:33N 45°23' E 012°24'0 0.0
2016-Jun-21 18:33N 45°23' E 012°24'0 0.0
2016-Jun-21 17:33N 45°23' E 012°24'0 0.0
2016-Jun-21 16:33N 45°23' E 012°24'0 0.0
2016-Jun-21 15:33N 45°23' E 012°24'0 0.0
2016-Jun-21 14:33N 45°23' E 012°24'0 0.0
2016-Jun-21 13:33N 45°23' E 012°24'0 0.0
2016-Jun-21 12:33N 45°23' E 012°24'0 0.0
2016-Jun-21 11:33N 45°23' E 012°24'0 0.0
2016-Jun-21 10:33N 45°23' E 012°24'0 0.0
2016-Jun-21 09:33N 45°23' E 012°24'0 0.0
2016-Jun-21 08:33N 45°23' E 012°24'0 0.0
2016-Jun-21 07:33N 45°23' E 012°24'0 0.0
2016-Jun-21 04:33N 45°23' E 012°24'0 0.0
2016-Jun-21 03:33N 45°23' E 012°24'0 0.0
2016-Jun-21 02:33N 45°23' E 012°24'0 0.0
2016-Jun-21 01:33N 45°23' E 012°24'0 0.0
2016-Jun-21 00:33N 45°23' E 012°24'0 0.1
2016-Jun-20 23:33N 45°23' E 012°24'0 0.1
2016-Jun-20 22:33N 45°23' E 012°24'0 0.0
2016-Jun-20 21:33N 45°23' E 012°24'0 0.0
2016-Jun-20 20:33N 45°23' E 012°24'0 0.0
2016-Jun-20 19:33N 45°23' E 012°24'0 0.0
2016-Jun-20 18:33N 45°23' E 012°24'0 0.0
2016-Jun-20 17:33N 45°23' E 012°24'0 0.0
2016-Jun-20 16:33N 45°23' E 012°24'0 0.0
2016-Jun-20 15:33N 45°23' E 012°24'0 0.0
2016-Jun-20 14:33N 45°23' E 012°24'0 0.0
2016-Jun-20 13:33N 45°23' E 012°24'0 0.0
2016-Jun-20 12:33N 45°23' E 012°24'0 0.0
2016-Jun-20 11:33N 45°23' E 012°24'0 0.0
2016-Jun-20 10:33N 45°23' E 012°24'0 0.0
2016-Jun-20 09:33N 45°23' E 012°24'0 0.0
2016-Jun-20 08:33N 45°23' E 012°24'0 0.0
2016-Jun-20 07:30N 45°23' E 012°24'0 0.0
2016-Jun-20 06:33N 45°23' E 012°24'0 0.0
2016-Jun-20 05:33N 45°23' E 012°24'0 0.0
2016-Jun-20 04:33N 45°23' E 012°24'0 0.0
2016-Jun-20 03:33N 45°23' E 012°24'0 0.0
2016-Jun-20 02:33N 45°23' E 012°24'0 0.0
2016-Jun-20 01:33N 45°23' E 012°24'0 0.0
2016-Jun-20 00:33N 45°23' E 012°24'0 0.0
2016-Jun-19 23:33N 45°23' E 012°24'0 0.0
2016-Jun-19 22:33N 45°23' E 012°24'0 0.0
2016-Jun-19 21:33N 45°23' E 012°24'3 3.1
2016-Jun-19 20:33N 45°20' E 012°26'9 9.0
2016-Jun-19 19:33N 45°14' E 012°36'9 9.5
2016-Jun-19 18:33N 45°09' E 012°47'9 9.4
2016-Jun-19 17:33N 45°00' E 012°53'  
2016-Jun-17 05:33N 37°59' E 020°22'11 9.6
2016-Jun-17 04:28N 37°50' E 020°29'9 9.4
2016-Jun-17 03:32N 37°42' E 020°34'12 9.4
2016-Jun-17 02:17N 37°32' E 020°41'  
Track history (hours):
 
Tides and Currents Weather Stations Pressure Air Temp Water Temp Dewpoint Dewpoint Depression Visibility Wind Speed Wind Dir Waves Ship Positions

Lady Debora

Last reported at 2016-Jun-26 05:33 UTC. Time now 2016-Jun-26 06:32 UTC.
Position N 45°14' E 012°23'.

Length 107 m; draft 4 m.

Type: Cargo ship. MMSI: 304010760.

Date/timePositionNaut miles runAvg speedWind from/ knotsBaromVisibWave heightAir tempDewpointWater temp
2016-Jun-26 05:33N 45°14' E 012°23'0 0.0
2016-Jun-26 04:33N 45°14' E 012°23'0 0.0
2016-Jun-26 03:33N 45°14' E 012°23'0 0.0
2016-Jun-26 02:33N 45°14' E 012°23'0 0.0
2016-Jun-26 01:33N 45°14' E 012°23'0 0.0
2016-Jun-26 00:33N 45°14' E 012°23'0 0.0
2016-Jun-25 23:30N 45°14' E 012°23'0 0.0
2016-Jun-25 22:33N 45°14' E 012°23'0 0.0
2016-Jun-25 21:33N 45°14' E 012°23'0 0.0
2016-Jun-25 20:33N 45°14' E 012°23'0 0.0
2016-Jun-25 19:33N 45°14' E 012°23'0 0.1
2016-Jun-25 18:33N 45°14' E 012°23'0 0.1
2016-Jun-25 17:33N 45°14' E 012°23'0 0.0
2016-Jun-25 16:33N 45°14' E 012°23'0 0.0
2016-Jun-25 15:33N 45°14' E 012°23'0 0.0
2016-Jun-25 14:33N 45°14' E 012°23'0 0.0
2016-Jun-25 13:33N 45°14' E 012°23'0 0.0
2016-Jun-25 12:33N 45°14' E 012°23'0 0.0
2016-Jun-25 11:33N 45°14' E 012°23'2 1.9
2016-Jun-25 10:34N 45°14' E 012°26'7 7.4
2016-Jun-25 09:34N 45°20' E 012°20'7 6.7
2016-Jun-25 08:33N 45°26' E 012°16'1 1.1
2016-Jun-25 07:31N 45°27' E 012°15'0 0.0
2016-Jun-25 06:25N 45°27' E 012°15'0 0.0
2016-Jun-25 05:28N 45°27' E 012°15'0 0.0
2016-Jun-25 04:31N 45°27' E 012°15'0 0.0
2016-Jun-25 03:31N 45°27' E 012°15'0 0.0
2016-Jun-25 02:31N 45°27' E 012°15'0 0.0
2016-Jun-25 01:31N 45°27' E 012°15'0 0.0
2016-Jun-25 00:28N 45°27' E 012°15'0 0.0
2016-Jun-24 23:28N 45°27' E 012°15'0 0.0
2016-Jun-24 22:31N 45°27' E 012°15'0 0.0
2016-Jun-24 21:31N 45°27' E 012°15'0 0.0
2016-Jun-24 20:31N 45°27' E 012°15'0 0.0
2016-Jun-24 19:31N 45°27' E 012°15'0 0.0
2016-Jun-24 18:31N 45°27' E 012°15'0 0.0
2016-Jun-24 17:31N 45°27' E 012°15'0 0.0
2016-Jun-24 16:31N 45°27' E 012°15'0 0.0
2016-Jun-24 15:33N 45°27' E 012°15'0 0.0
2016-Jun-24 14:31N 45°27' E 012°15'0 0.0
2016-Jun-24 13:31N 45°27' E 012°15'0 0.0
2016-Jun-24 12:31N 45°27' E 012°15'0 0.0
2016-Jun-24 11:32N 45°27' E 012°15'0 0.0
2016-Jun-24 10:31N 45°27' E 012°15'0 0.0
2016-Jun-24 09:31N 45°27' E 012°15'0 0.0
2016-Jun-24 08:31N 45°27' E 012°15'0 0.0
2016-Jun-24 07:28N 45°27' E 012°15'0 0.0
2016-Jun-24 04:34N 45°27' E 012°15'0 0.1
2016-Jun-24 03:31N 45°27' E 012°15'0 0.0
2016-Jun-24 02:25N 45°27' E 012°15'0 0.0
2016-Jun-24 01:31N 45°27' E 012°15'0 0.0
2016-Jun-24 00:31N 45°27' E 012°15'0 0.0
2016-Jun-23 23:31N 45°27' E 012°15'0 0.0
2016-Jun-23 22:31N 45°27' E 012°15'0 0.0
2016-Jun-23 21:31N 45°27' E 012°15'0 0.0
2016-Jun-23 20:28N 45°27' E 012°15'0 0.0
2016-Jun-23 19:31N 45°27' E 012°15'0 0.0
2016-Jun-23 18:31N 45°27' E 012°15'0 0.0
2016-Jun-23 17:31N 45°27' E 012°15'0 0.0
2016-Jun-23 16:31N 45°27' E 012°15'0 0.0
2016-Jun-23 15:31N 45°27' E 012°15'0 0.0
2016-Jun-23 14:31N 45°27' E 012°15'0 0.0
2016-Jun-23 13:31N 45°27' E 012°15'0 0.0
2016-Jun-23 12:31N 45°27' E 012°15'0 0.0
2016-Jun-23 11:31N 45°27' E 012°15'0 0.0
2016-Jun-23 10:31N 45°27' E 012°15'0 0.0
2016-Jun-23 09:31N 45°27' E 012°15'0 0.0
2016-Jun-23 08:32N 45°27' E 012°15'0 0.0
2016-Jun-23 07:31N 45°27' E 012°15'0 0.1
2016-Jun-23 05:33N 45°27' E 012°16'6 6.3
2016-Jun-23 04:34N 45°21' E 012°16'6 5.8
2016-Jun-23 03:33N 45°22' E 012°24'1 0.8
2016-Jun-23 02:33N 45°23' E 012°24'0 0.0
2016-Jun-23 01:33N 45°23' E 012°24'0 0.0
2016-Jun-23 00:33N 45°23' E 012°24'0 0.0
2016-Jun-22 23:33N 45°23' E 012°24'0 0.0
2016-Jun-22 22:33N 45°23' E 012°24'0 0.0
2016-Jun-22 21:33N 45°23' E 012°24'0 0.0
2016-Jun-22 20:33N 45°23' E 012°24'0 0.0
2016-Jun-22 19:33N 45°23' E 012°24'0 0.0
2016-Jun-22 18:33N 45°23' E 012°24'0 0.0
2016-Jun-22 17:33N 45°23' E 012°24'0 0.0
2016-Jun-22 16:33N 45°23' E 012°24'0 0.0
2016-Jun-22 15:33N 45°23' E 012°24'0 0.0
2016-Jun-22 14:33N 45°23' E 012°24'0 0.0
2016-Jun-22 13:33N 45°23' E 012°24'0 0.0
2016-Jun-22 12:33N 45°23' E 012°24'0 0.0
2016-Jun-22 11:33N 45°23' E 012°24'0 0.0
2016-Jun-22 10:33N 45°23' E 012°24'0 0.0
2016-Jun-22 09:33N 45°23' E 012°24'0 0.0
2016-Jun-22 08:33N 45°23' E 012°24'0 0.0
2016-Jun-22 07:33N 45°23' E 012°24'0 0.0
2016-Jun-22 06:33N 45°23' E 012°24'0 0.0
2016-Jun-22 05:33N 45°23' E 012°24'0 0.1
2016-Jun-22 04:33N 45°23' E 012°24'0 0.0
2016-Jun-22 03:33N 45°23' E 012°24'0 0.0
2016-Jun-22 02:33N 45°23' E 012°24'0 0.0
2016-Jun-22 01:33N 45°23' E 012°24'0 0.0
2016-Jun-22 00:33N 45°23' E 012°24'0 0.0
2016-Jun-21 23:33N 45°23' E 012°24'0 0.0
2016-Jun-21 22:33N 45°23' E 012°24'0 0.0
2016-Jun-21 21:33N 45°23' E 012°24'0 0.0
2016-Jun-21 20:33N 45°23' E 012°24'0 0.0
2016-Jun-21 19:33N 45°23' E 012°24'0 0.0
2016-Jun-21 18:33N 45°23' E 012°24'0 0.0
2016-Jun-21 17:33N 45°23' E 012°24'0 0.0
2016-Jun-21 16:33N 45°23' E 012°24'0 0.0
2016-Jun-21 15:33N 45°23' E 012°24'0 0.0
2016-Jun-21 14:33N 45°23' E 012°24'0 0.0
2016-Jun-21 13:33N 45°23' E 012°24'0 0.0
2016-Jun-21 12:33N 45°23' E 012°24'0 0.0
2016-Jun-21 11:33N 45°23' E 012°24'0 0.0
2016-Jun-21 10:33N 45°23' E 012°24'0 0.0
2016-Jun-21 09:33N 45°23' E 012°24'0 0.0
2016-Jun-21 08:33N 45°23' E 012°24'0 0.0
2016-Jun-21 07:33N 45°23' E 012°24'0 0.0
2016-Jun-21 04:33N 45°23' E 012°24'0 0.0
2016-Jun-21 03:33N 45°23' E 012°24'0 0.0
2016-Jun-21 02:33N 45°23' E 012°24'0 0.0
2016-Jun-21 01:33N 45°23' E 012°24'0 0.0
2016-Jun-21 00:33N 45°23' E 012°24'0 0.1
2016-Jun-20 23:33N 45°23' E 012°24'0 0.1
2016-Jun-20 22:33N 45°23' E 012°24'0 0.0
2016-Jun-20 21:33N 45°23' E 012°24'0 0.0
2016-Jun-20 20:33N 45°23' E 012°24'0 0.0
2016-Jun-20 19:33N 45°23' E 012°24'0 0.0
2016-Jun-20 18:33N 45°23' E 012°24'0 0.0
2016-Jun-20 17:33N 45°23' E 012°24'0 0.0
2016-Jun-20 16:33N 45°23' E 012°24'0 0.0
2016-Jun-20 15:33N 45°23' E 012°24'0 0.0
2016-Jun-20 14:33N 45°23' E 012°24'0 0.0
2016-Jun-20 13:33N 45°23' E 012°24'0 0.0
2016-Jun-20 12:33N 45°23' E 012°24'0 0.0
2016-Jun-20 11:33N 45°23' E 012°24'0 0.0
2016-Jun-20 10:33N 45°23' E 012°24'0 0.0
2016-Jun-20 09:33N 45°23' E 012°24'0 0.0
2016-Jun-20 08:33N 45°23' E 012°24'0 0.0
2016-Jun-20 07:30N 45°23' E 012°24'0 0.0
2016-Jun-20 06:33N 45°23' E 012°24'0 0.0
2016-Jun-20 05:33N 45°23' E 012°24'0 0.0
2016-Jun-20 04:33N 45°23' E 012°24'0 0.0
2016-Jun-20 03:33N 45°23' E 012°24'0 0.0
2016-Jun-20 02:33N 45°23' E 012°24'0 0.0
2016-Jun-20 01:33N 45°23' E 012°24'0 0.0
2016-Jun-20 00:33N 45°23' E 012°24'0 0.0
2016-Jun-19 23:33N 45°23' E 012°24'0 0.0
2016-Jun-19 22:33N 45°23' E 012°24'0 0.0
2016-Jun-19 21:33N 45°23' E 012°24'3 3.1
2016-Jun-19 20:33N 45°20' E 012°26'9 9.0
2016-Jun-19 19:33N 45°14' E 012°36'9 9.5
2016-Jun-19 18:33N 45°09' E 012°47'9 9.4
2016-Jun-19 17:33N 45°00' E 012°53'  
2016-Jun-17 05:33N 37°59' E 020°22'11 9.6
2016-Jun-17 04:28N 37°50' E 020°29'9 9.4
2016-Jun-17 03:32N 37°42' E 020°34'12 9.4
2016-Jun-17 02:17N 37°32' E 020°41'  

Dump ship's entire track history